createdAt,value
2019-02-22T00:03:21.584Z,102723.70
2019-02-22T00:07:27.020Z,102720.34
2019-02-22T00:11:32.697Z,102719.11
2019-02-22T00:15:38.164Z,102725.47
2019-02-22T00:19:43.587Z,102732.88
2019-02-22T00:23:48.949Z,102737.00
2019-02-22T00:27:54.389Z,102740.85
2019-02-22T00:31:59.831Z,102741.41
2019-02-22T00:36:05.165Z,102741.93
2019-02-22T00:40:10.608Z,102747.78
2019-02-22T00:44:16.018Z,102746.06
2019-02-22T00:48:21.382Z,102749.16
2019-02-22T00:52:26.911Z,102747.64
2019-02-22T00:56:32.339Z,102743.45
2019-02-22T01:00:37.794Z,102744.17
2019-02-22T01:04:43.229Z,102757.22
2019-02-22T01:08:48.637Z,102755.18
2019-02-22T01:12:53.979Z,102763.06
2019-02-22T01:16:59.517Z,102758.93
2019-02-22T01:21:04.849Z,102766.70
2019-02-22T01:25:10.233Z,102764.95
2019-02-22T01:29:15.656Z,102766.98
2019-02-22T01:33:20.986Z,102758.22
2019-02-22T01:37:26.407Z,102757.98
2019-02-22T01:41:32.070Z,102771.70
2019-02-22T01:45:37.650Z,102771.84
2019-02-22T01:49:43.065Z,102765.23
2019-02-22T01:53:48.515Z,102766.69
2019-02-22T01:57:53.986Z,102775.73
2019-02-22T02:01:59.328Z,102781.75
2019-02-22T02:06:04.762Z,102780.17
2019-02-22T02:10:10.550Z,102794.08
2019-02-22T02:14:15.886Z,102797.69
2019-02-22T02:18:21.418Z,102801.58
2019-02-22T02:22:27.167Z,102800.72
2019-02-22T02:26:32.619Z,102803.47
2019-02-22T02:30:38.368Z,102792.08
2019-02-22T02:34:43.590Z,102803.61
2019-02-22T02:38:48.950Z,102798.89
2019-02-22T02:42:54.388Z,102805.84
2019-02-22T02:46:59.812Z,102798.63
2019-02-22T02:51:05.171Z,102796.07
2019-02-22T02:55:34.319Z,102793.73
2019-02-22T02:59:39.934Z,102794.62
2019-02-22T03:03:45.366Z,102799.41
2019-02-22T03:07:50.664Z,102800.14
2019-02-22T03:11:56.075Z,102798.38
2019-02-22T03:16:01.478Z,102802.37
2019-02-22T03:20:07.274Z,102805.98
2019-02-22T03:24:12.990Z,102804.74
2019-02-22T03:28:18.410Z,102814.24
2019-02-22T03:32:24.110Z,102818.16
2019-02-22T03:36:29.884Z,102820.41
2019-02-22T03:40:35.836Z,102828.08
2019-02-22T03:44:41.196Z,102822.05
2019-02-22T03:48:46.822Z,102822.56
2019-02-22T03:52:55.324Z,102830.44
2019-02-22T03:57:00.791Z,102833.95
2019-02-22T04:01:06.223Z,102845.58
2019-02-22T04:05:11.667Z,102841.45
2019-02-22T04:09:16.895Z,102864.98
2019-02-22T04:13:22.312Z,102860.37
2019-02-22T04:17:27.738Z,102872.34
2019-02-22T04:21:33.435Z,102878.61
2019-02-22T04:25:38.695Z,102881.50
2019-02-22T04:29:44.178Z,102883.39
2019-02-22T04:33:49.525Z,102881.28
2019-02-22T04:37:54.987Z,102878.30
2019-02-22T04:42:00.296Z,102875.20
2019-02-22T04:46:05.824Z,102884.72
2019-02-22T04:50:11.256Z,102881.59
2019-02-22T04:54:16.600Z,102891.84
2019-02-22T04:58:22.413Z,102891.33
2019-02-22T05:02:27.915Z,102897.48
2019-02-22T05:06:33.378Z,102896.23
2019-02-22T05:10:38.741Z,102900.84
2019-02-22T05:14:44.228Z,102907.52
2019-02-22T05:18:49.957Z,102901.28
2019-02-22T05:23:03.789Z,102908.37
2019-02-22T05:27:02.884Z,102924.38
2019-02-22T05:31:08.654Z,102933.66
2019-02-22T05:35:14.089Z,102934.00
2019-02-22T05:39:19.693Z,102932.93
2019-02-22T05:43:25.149Z,102937.67
2019-02-22T05:47:30.602Z,102949.70
2019-02-22T05:51:36.047Z,102954.23
2019-02-22T05:55:44.087Z,102959.59
2019-02-22T05:59:49.431Z,102958.95
2019-02-22T06:03:55.056Z,102963.72
2019-02-22T06:08:00.527Z,102964.72
2019-02-22T06:12:05.950Z,102970.36
2019-02-22T06:16:11.490Z,102971.00
2019-02-22T06:20:17.225Z,102976.50
2019-02-22T06:24:22.737Z,102975.64
2019-02-22T06:28:28.221Z,102979.77
2019-02-22T06:32:33.594Z,102990.51
2019-02-22T06:36:38.828Z,102989.88
2019-02-22T06:40:47.215Z,102990.26
2019-02-22T06:44:51.741Z,102998.38
2019-02-22T06:48:57.464Z,103005.77
2019-02-22T06:53:02.889Z,103003.02
2019-02-22T06:57:08.344Z,103005.64
2019-02-22T07:01:13.963Z,103016.64
2019-02-22T07:05:19.726Z,103012.40
2019-02-22T07:09:25.469Z,103009.77
2019-02-22T07:13:30.772Z,103020.26
2019-02-22T07:17:36.225Z,103015.36
2019-02-22T07:21:52.142Z,103023.34
2019-02-22T07:25:48.819Z,103027.98
2019-02-22T07:29:54.339Z,103044.37
2019-02-22T07:33:59.960Z,103040.37
2019-02-22T07:38:05.612Z,103055.08
2019-02-22T07:42:11.155Z,103060.11
2019-02-22T07:46:17.053Z,103071.23
2019-02-22T07:50:22.505Z,103073.61
2019-02-22T07:54:27.938Z,103078.47
2019-02-22T07:58:33.491Z,103087.75
2019-02-22T08:02:38.944Z,103100.48
2019-02-22T08:06:44.290Z,103104.61
2019-02-22T08:10:49.687Z,103105.81
2019-02-22T08:14:55.241Z,103108.83
2019-02-22T08:19:01.939Z,103116.00
2019-02-22T08:23:07.746Z,103123.96
2019-02-22T08:27:13.441Z,103127.31
2019-02-22T08:31:18.880Z,103136.47
2019-02-22T08:35:24.347Z,103146.88
2019-02-22T08:39:29.877Z,103159.48
2019-02-22T08:43:35.284Z,103163.09
2019-02-22T08:47:40.707Z,103171.48
2019-02-22T08:51:46.171Z,103174.45
2019-02-22T08:55:51.799Z,103178.10
2019-02-22T08:59:57.265Z,103172.81
2019-02-22T09:04:02.775Z,103180.68
2019-02-22T09:08:08.227Z,103181.92
2019-02-22T09:12:13.707Z,103189.14
2019-02-22T09:16:19.173Z,103192.75
2019-02-22T09:20:24.883Z,103187.25
2019-02-22T09:24:30.311Z,103200.06
2019-02-22T09:28:35.758Z,103204.12
2019-02-22T09:32:41.391Z,103210.94
2019-02-22T09:36:47.227Z,103209.94
2019-02-22T09:40:52.910Z,103214.67
2019-02-22T09:44:58.780Z,103219.98
2019-02-22T09:49:04.296Z,103218.29
2019-02-22T09:53:09.783Z,103214.20
2019-02-22T09:57:15.346Z,103216.51
2019-02-22T10:01:21.186Z,103226.52
2019-02-22T10:05:26.628Z,103220.38
2019-02-22T10:09:32.646Z,103226.14
2019-02-22T10:13:38.117Z,103219.02
2019-02-22T10:17:43.687Z,103222.59
2019-02-22T10:21:49.171Z,103228.03
2019-02-22T10:25:55.031Z,103243.59
2019-02-22T10:30:01.330Z,103242.08
2019-02-22T10:34:06.863Z,103243.39
2019-02-22T10:38:12.340Z,103244.23
2019-02-22T10:42:17.704Z,103248.70
2019-02-22T10:46:23.256Z,103238.12
2019-02-22T10:50:28.733Z,103242.32
2019-02-22T10:54:34.205Z,103247.67
2019-02-22T10:58:39.593Z,103254.69
2019-02-22T11:02:45.285Z,103257.48
2019-02-22T11:06:50.827Z,103259.44
2019-02-22T11:10:56.328Z,103264.55
2019-02-22T11:15:01.701Z,103265.81
2019-02-22T11:19:07.234Z,103258.33
2019-02-22T11:23:13.022Z,103261.55
2019-02-22T11:27:18.380Z,103258.25
2019-02-22T11:31:24.144Z,103268.32
2019-02-22T11:35:29.509Z,103259.30
2019-02-22T11:39:35.021Z,103258.70
2019-02-22T11:43:40.306Z,103261.20
2019-02-22T11:47:45.670Z,103260.46
2019-02-22T11:51:51.022Z,103262.94
2019-02-22T11:55:57.103Z,103268.59
2019-02-22T12:00:02.496Z,103265.63
2019-02-22T12:04:08.239Z,103266.52
2019-02-22T12:08:13.700Z,103270.26
2019-02-22T12:12:19.111Z,103263.98
2019-02-22T12:16:24.527Z,103255.66
2019-02-22T12:20:30.316Z,103257.49
2019-02-22T12:24:35.749Z,103255.84
2019-02-22T12:28:41.029Z,103263.38
2019-02-22T12:32:47.149Z,103253.68
2019-02-22T12:36:52.352Z,103260.77
2019-02-22T12:40:58.237Z,103261.98
2019-02-22T12:45:04.029Z,103271.95
2019-02-22T12:49:11.007Z,103277.17
2019-02-22T12:53:16.570Z,103277.67
2019-02-22T12:57:22.312Z,103272.08
2019-02-22T13:01:27.779Z,103278.28
2019-02-22T13:05:33.582Z,103284.72
2019-02-22T13:09:38.901Z,103286.12
2019-02-22T13:13:44.246Z,103279.09
2019-02-22T13:17:49.669Z,103280.09
2019-02-22T13:21:55.135Z,103279.45
2019-02-22T13:26:00.470Z,103271.61
2019-02-22T13:30:07.053Z,103271.89
2019-02-22T13:34:12.468Z,103270.86
2019-02-22T13:38:18.231Z,103266.08
2019-02-22T13:42:23.941Z,103264.19
2019-02-22T13:46:29.411Z,103270.94
2019-02-22T13:50:35.103Z,103273.59
2019-02-22T13:54:44.131Z,103267.87
2019-02-22T13:58:48.364Z,103259.50
2019-02-22T14:02:53.722Z,103256.43
2019-02-22T14:06:59.233Z,103263.28
2019-02-22T14:11:04.596Z,103247.23
2019-02-22T14:15:10.073Z,103248.79
2019-02-22T14:19:15.427Z,103250.20
2019-02-22T14:23:20.896Z,103251.77
2019-02-22T14:27:26.688Z,103258.70
2019-02-22T14:31:32.175Z,103266.31
2019-02-22T14:35:37.602Z,103264.11
2019-02-22T14:39:42.928Z,103270.65
2019-02-22T14:43:48.373Z,103267.59
2019-02-22T14:47:53.772Z,103262.95
2019-02-22T14:51:59.231Z,103258.62
2019-02-22T14:56:04.656Z,103267.05
2019-02-22T15:00:15.540Z,103272.92
2019-02-22T15:04:20.866Z,103267.77
2019-02-22T15:08:26.663Z,103275.80
2019-02-22T15:12:32.025Z,103279.20
2019-02-22T15:16:57.310Z,103287.67
2019-02-22T15:21:02.742Z,103285.69
2019-02-22T15:25:10.236Z,103282.12
2019-02-22T15:29:16.032Z,103279.98
2019-02-22T15:33:24.312Z,103279.80
2019-02-22T15:37:29.701Z,103284.94
2019-02-22T15:41:35.141Z,103296.30
2019-02-22T15:45:40.590Z,103286.03
2019-02-22T15:49:48.503Z,103286.73
2019-02-22T15:53:53.422Z,103291.57
2019-02-22T15:57:58.870Z,103289.64
2019-02-22T16:02:04.227Z,103290.31
2019-02-22T16:06:09.707Z,103293.86
2019-02-22T16:10:15.569Z,103303.68
2019-02-22T16:14:20.975Z,103306.94
2019-02-22T16:18:26.338Z,103309.38
2019-02-22T16:22:31.794Z,103313.56
2019-02-22T16:26:37.003Z,103318.67
2019-02-22T16:30:42.514Z,103321.91
2019-02-22T16:34:48.015Z,103314.84
2019-02-22T16:38:53.539Z,103303.27
2019-02-22T16:42:59.232Z,103296.70
2019-02-22T16:47:04.592Z,103302.77
2019-02-22T16:51:10.072Z,103311.81
2019-02-22T16:55:16.175Z,103314.83
2019-02-22T16:59:21.713Z,103313.41
2019-02-22T17:03:27.313Z,103325.36
2019-02-22T17:07:32.662Z,103325.73
2019-02-22T17:11:38.008Z,103323.32
2019-02-22T17:15:43.998Z,103340.41
2019-02-22T17:19:49.607Z,103340.42
2019-02-22T17:23:55.008Z,103336.90
2019-02-22T17:28:00.575Z,103344.06
2019-02-22T17:32:06.021Z,103343.45
2019-02-22T17:36:11.370Z,103344.14
2019-02-22T17:40:16.699Z,103347.55
2019-02-22T17:44:22.206Z,103348.98
2019-02-22T17:48:27.568Z,103355.70
2019-02-22T17:52:33.111Z,103359.30
2019-02-22T17:56:38.841Z,103358.84
2019-02-22T18:00:44.195Z,103356.30
2019-02-22T18:04:49.808Z,103360.84
2019-02-22T18:08:55.561Z,103361.55
2019-02-22T18:13:01.198Z,103363.44
2019-02-22T18:17:08.713Z,103357.39
2019-02-22T18:21:13.750Z,103352.34
2019-02-22T18:25:19.232Z,103345.63
2019-02-22T18:29:35.088Z,103359.34
2019-02-22T18:33:34.160Z,103364.91
2019-02-22T18:37:39.909Z,103349.66
2019-02-22T18:41:45.256Z,103359.08
2019-02-22T18:45:50.538Z,103360.30
2019-02-22T18:49:55.950Z,103357.92
2019-02-22T18:54:01.235Z,103334.97
2019-02-22T18:58:06.557Z,103321.97
2019-02-22T19:02:12.340Z,103332.17
2019-02-22T19:06:17.732Z,103329.03
2019-02-22T19:10:23.300Z,103343.06
2019-02-22T19:14:28.606Z,103347.36
2019-02-22T19:18:35.899Z,103359.53
2019-02-22T19:22:41.969Z,103355.68
2019-02-22T19:26:47.451Z,103362.77
2019-02-22T19:30:53.270Z,103374.05
2019-02-22T19:34:59.078Z,103388.09
2019-02-22T19:39:05.460Z,103397.45
2019-02-22T19:43:11.281Z,103399.92
2019-02-22T19:47:16.768Z,103402.37
2019-02-22T19:51:22.073Z,103412.66
2019-02-22T19:55:27.624Z,103410.68
2019-02-22T19:59:33.620Z,103419.30
2019-02-22T20:03:39.128Z,103400.05
2019-02-22T20:07:44.701Z,103407.66
2019-02-22T20:11:50.066Z,103410.14
2019-02-22T20:15:55.800Z,103404.16
2019-02-22T20:20:01.371Z,103409.16
2019-02-22T20:24:06.802Z,103413.05
2019-02-22T20:28:12.979Z,103418.91
2019-02-22T20:32:18.186Z,103411.69
2019-02-22T20:36:28.349Z,103413.55
2019-02-22T20:40:30.746Z,103406.55
2019-02-22T20:44:36.211Z,103414.05
2019-02-22T20:48:42.343Z,103417.20
2019-02-22T20:52:48.066Z,103419.83
2019-02-22T20:56:53.471Z,103420.19
2019-02-22T21:00:59.005Z,103425.84
2019-02-22T21:05:04.444Z,103428.44
2019-02-22T21:09:09.927Z,103420.07
2019-02-22T21:13:15.306Z,103419.53
2019-02-22T21:17:20.810Z,103431.88
2019-02-22T21:21:26.268Z,103438.35
2019-02-22T21:25:31.802Z,103431.27
2019-02-22T21:29:39.186Z,103434.03
2019-02-22T21:33:44.865Z,103438.25
2019-02-22T21:37:50.598Z,103438.78
2019-02-22T21:41:56.394Z,103443.25
2019-02-22T21:46:02.184Z,103436.77
2019-02-22T21:50:09.749Z,103442.25
2019-02-22T21:54:15.265Z,103442.55
2019-02-22T21:58:20.948Z,103438.89
2019-02-22T22:02:26.461Z,103441.73
2019-02-22T22:06:31.841Z,103447.05
2019-02-22T22:10:37.233Z,103459.12
2019-02-22T22:14:42.780Z,103460.73
2019-02-22T22:18:48.499Z,103447.39
2019-02-22T22:22:53.853Z,103456.67
2019-02-22T22:26:59.353Z,103465.55
2019-02-22T22:31:04.857Z,103459.16
2019-02-22T22:35:11.343Z,103456.84
2019-02-22T22:39:16.782Z,103457.28
2019-02-22T22:43:22.243Z,103457.14
2019-02-22T22:47:29.467Z,103456.95
2019-02-22T22:51:34.835Z,103454.74
2019-02-22T22:55:40.875Z,103461.90
2019-02-22T22:59:46.683Z,103459.30
2019-02-22T23:03:53.308Z,103461.25
2019-02-22T23:07:58.741Z,103459.52
2019-02-22T23:12:04.861Z,103454.27
2019-02-22T23:16:10.312Z,103459.86
2019-02-22T23:20:16.063Z,103453.61
2019-02-22T23:24:21.745Z,103456.84
2019-02-22T23:28:27.288Z,103463.83
2019-02-22T23:32:32.833Z,103462.80
2019-02-22T23:36:38.491Z,103473.91
2019-02-22T23:40:44.001Z,103477.72
2019-02-22T23:44:49.725Z,103482.80
2019-02-22T23:48:55.456Z,103478.14
2019-02-22T23:53:00.906Z,103472.10
2019-02-22T23:57:06.845Z,103468.39
